Jurupa, California
Current Conditions -  °F | °C
As of 1:53 PM on Wednesday 22 Oct 2014 (Local Time) from KRAL Reporting Station
Clear Clear  
Wind Chill: 88°   Ceiling: Unl
Heat Index: 88°   Visibility: 10mi
Dew Point: 24°   Wind: 5mph
Humidity: 10%   Direction: NA
Pressure: 29.89"   Gusts: NA
Location:  34.0033°N, 117.446°W
Report Text: KRAL 222053Z VRB04KT 10SM CLR 31/M04 A2989 RMK AO2 SLP108 T03111044 56022
Loading
Personal Weather Stations






























Interactive Weather Map
Tropical Storm Tracking
New forecast layout! Learn more

10-Day Weather Forecast

Advertisements
Track Severe Weather on mobile